sensor_id;sensor_type;location;lat;lon;timestamp;P1;durP1;ratioP1;P2;durP2;ratioP2
69754;SDS011;57023;52.218;5.158;2023-12-14T00:02:17;19.47;;;9.43;;
69754;SDS011;57023;52.218;5.158;2023-12-14T00:04:43;18.13;;;9.50;;
69754;SDS011;57023;52.218;5.158;2023-12-14T00:07:08;17.40;;;8.80;;
69754;SDS011;57023;52.218;5.158;2023-12-14T00:09:33;17.90;;;8.87;;
69754;SDS011;57023;52.218;5.158;2023-12-14T00:11:58;19.40;;;10.17;;
69754;SDS011;57023;52.218;5.158;2023-12-14T00:14:23;17.43;;;9.57;;
69754;SDS011;57023;52.218;5.158;2023-12-14T00:16:48;20.55;;;9.95;;
69754;SDS011;57023;52.218;5.158;2023-12-14T00:19:14;17.55;;;9.13;;
69754;SDS011;57023;52.218;5.158;2023-12-14T00:21:39;20.23;;;10.10;;
69754;SDS011;57023;52.218;5.158;2023-12-14T00:24:05;20.03;;;9.87;;
69754;SDS011;57023;52.218;5.158;2023-12-14T00:26:30;20.70;;;9.82;;
69754;SDS011;57023;52.218;5.158;2023-12-14T00:28:55;18.93;;;9.80;;
69754;SDS011;57023;52.218;5.158;2023-12-14T00:31:20;19.83;;;9.90;;
69754;SDS011;57023;52.218;5.158;2023-12-14T00:33:45;18.13;;;9.23;;
69754;SDS011;57023;52.218;5.158;2023-12-14T00:36:17;19.90;;;9.93;;
69754;SDS011;57023;52.218;5.158;2023-12-14T00:38:42;17.02;;;9.52;;
69754;SDS011;57023;52.218;5.158;2023-12-14T00:41:07;19.63;;;9.43;;
69754;SDS011;57023;52.218;5.158;2023-12-14T00:43:32;21.13;;;9.55;;
69754;SDS011;57023;52.218;5.158;2023-12-14T00:45:57;17.10;;;9.43;;
69754;SDS011;57023;52.218;5.158;2023-12-14T00:48:22;17.33;;;9.17;;
69754;SDS011;57023;52.218;5.158;2023-12-14T00:50:48;17.92;;;9.82;;
69754;SDS011;57023;52.218;5.158;2023-12-14T00:53:13;18.67;;;9.53;;
69754;SDS011;57023;52.218;5.158;2023-12-14T00:55:38;19.53;;;9.83;;
69754;SDS011;57023;52.218;5.158;2023-12-14T00:58:03;18.77;;;9.80;;
69754;SDS011;57023;52.218;5.158;2023-12-14T01:00:28;17.40;;;8.80;;
69754;SDS011;57023;52.218;5.158;2023-12-14T01:02:54;20.13;;;10.27;;
69754;SDS011;57023;52.218;5.158;2023-12-14T01:05:19;19.10;;;9.13;;
69754;SDS011;57023;52.218;5.158;2023-12-14T01:07:44;19.20;;;9.63;;
69754;SDS011;57023;52.218;5.158;2023-12-14T01:10:09;18.05;;;9.10;;
69754;SDS011;57023;52.218;5.158;2023-12-14T01:12:35;18.58;;;9.18;;
69754;SDS011;57023;52.218;5.158;2023-12-14T01:15:00;19.30;;;9.63;;
69754;SDS011;57023;52.218;5.158;2023-12-14T01:17:25;17.33;;;9.00;;
69754;SDS011;57023;52.218;5.158;2023-12-14T01:19:50;19.20;;;8.98;;
69754;SDS011;57023;52.218;5.158;2023-12-14T01:24:43;18.13;;;8.93;;
69754;SDS011;57023;52.218;5.158;2023-12-14T01:27:08;17.67;;;9.43;;
69754;SDS011;57023;52.218;5.158;2023-12-14T01:29:35;19.77;;;10.18;;
69754;SDS011;57023;52.218;5.158;2023-12-14T01:32:00;16.57;;;9.03;;
69754;SDS011;57023;52.218;5.158;2023-12-14T01:34:25;17.27;;;8.90;;
69754;SDS011;57023;52.218;5.158;2023-12-14T01:36:51;20.23;;;9.52;;
69754;SDS011;57023;52.218;5.158;2023-12-14T01:39:16;19.97;;;10.13;;
69754;SDS011;57023;52.218;5.158;2023-12-14T01:41:42;17.30;;;9.23;;
69754;SDS011;57023;52.218;5.158;2023-12-14T01:44:07;21.03;;;10.00;;
69754;SDS011;57023;52.218;5.158;2023-12-14T01:46:32;20.13;;;9.40;;
69754;SDS011;57023;52.218;5.158;2023-12-14T01:48:57;21.90;;;9.63;;
69754;SDS011;57023;52.218;5.158;2023-12-14T01:51:22;20.55;;;9.93;;
69754;SDS011;57023;52.218;5.158;2023-12-14T01:53:47;18.70;;;9.87;;
69754;SDS011;57023;52.218;5.158;2023-12-14T01:56:13;20.25;;;9.63;;
69754;SDS011;57023;52.218;5.158;2023-12-14T01:58:38;18.43;;;10.03;;
69754;SDS011;57023;52.218;5.158;2023-12-14T02:03:43;20.10;;;9.75;;
69754;SDS011;57023;52.218;5.158;2023-12-14T02:06:09;19.38;;;10.20;;
69754;SDS011;57023;52.218;5.158;2023-12-14T02:08:34;19.90;;;10.00;;
69754;SDS011;57023;52.218;5.158;2023-12-14T02:10:59;21.67;;;10.67;;
69754;SDS011;57023;52.218;5.158;2023-12-14T02:13:24;19.03;;;9.77;;
69754;SDS011;57023;52.218;5.158;2023-12-14T02:15:51;21.02;;;9.85;;
69754;SDS011;57023;52.218;5.158;2023-12-14T02:18:18;23.02;;;10.05;;
69754;SDS011;57023;52.218;5.158;2023-12-14T02:20:43;20.80;;;10.23;;
69754;SDS011;57023;52.218;5.158;2023-12-14T02:23:08;20.13;;;9.83;;
69754;SDS011;57023;52.218;5.158;2023-12-14T02:25:33;22.87;;;9.50;;
69754;SDS011;57023;52.218;5.158;2023-12-14T02:27:59;18.85;;;9.50;;
69754;SDS011;57023;52.218;5.158;2023-12-14T02:30:24;23.30;;;10.13;;
69754;SDS011;57023;52.218;5.158;2023-12-14T02:32:49;20.42;;;10.15;;
69754;SDS011;57023;52.218;5.158;2023-12-14T02:35:14;23.37;;;10.20;;
69754;SDS011;57023;52.218;5.158;2023-12-14T02:37:39;22.67;;;9.90;;
69754;SDS011;57023;52.218;5.158;2023-12-14T02:40:10;19.10;;;8.52;;
69754;SDS011;57023;52.218;5.158;2023-12-14T02:42:36;21.25;;;9.30;;
69754;SDS011;57023;52.218;5.158;2023-12-14T02:45:01;21.75;;;10.38;;
69754;SDS011;57023;52.218;5.158;2023-12-14T02:47:27;23.23;;;9.60;;
69754;SDS011;57023;52.218;5.158;2023-12-14T02:49:52;22.50;;;9.98;;
69754;SDS011;57023;52.218;5.158;2023-12-14T02:52:18;17.98;;;9.38;;
69754;SDS011;57023;52.218;5.158;2023-12-14T02:54:43;21.20;;;10.20;;
69754;SDS011;57023;52.218;5.158;2023-12-14T02:57:08;22.07;;;9.43;;
69754;SDS011;57023;52.218;5.158;2023-12-14T02:59:33;19.45;;;9.05;;
69754;SDS011;57023;52.218;5.158;2023-12-14T03:01:59;19.23;;;8.97;;
69754;SDS011;57023;52.218;5.158;2023-12-14T03:04:24;17.70;;;9.27;;
69754;SDS011;57023;52.218;5.158;2023-12-14T03:06:50;19.60;;;8.67;;
69754;SDS011;57023;52.218;5.158;2023-12-14T03:09:15;19.40;;;9.00;;
69754;SDS011;57023;52.218;5.158;2023-12-14T03:11:40;23.90;;;9.27;;
69754;SDS011;57023;52.218;5.158;2023-12-14T03:14:05;18.10;;;8.90;;
69754;SDS011;57023;52.218;5.158;2023-12-14T03:16:30;20.40;;;9.00;;
69754;SDS011;57023;52.218;5.158;2023-12-14T03:18:55;19.45;;;8.55;;
69754;SDS011;57023;52.218;5.158;2023-12-14T03:21:21;16.02;;;7.65;;
69754;SDS011;57023;52.218;5.158;2023-12-14T03:23:46;16.88;;;8.57;;
69754;SDS011;57023;52.218;5.158;2023-12-14T03:26:12;16.10;;;7.57;;
69754;SDS011;57023;52.218;5.158;2023-12-14T03:28:37;21.23;;;8.13;;
69754;SDS011;57023;52.218;5.158;2023-12-14T03:31:02;15.38;;;7.28;;
69754;SDS011;57023;52.218;5.158;2023-12-14T03:33:28;18.40;;;7.97;;
69754;SDS011;57023;52.218;5.158;2023-12-14T03:35:53;16.53;;;8.03;;
69754;SDS011;57023;52.218;5.158;2023-12-14T03:38:18;17.67;;;7.67;;
69754;SDS011;57023;52.218;5.158;2023-12-14T03:40:43;16.57;;;7.47;;
69754;SDS011;57023;52.218;5.158;2023-12-14T03:43:09;20.43;;;7.30;;
69754;SDS011;57023;52.218;5.158;2023-12-14T03:45:34;14.43;;;7.18;;
69754;SDS011;57023;52.218;5.158;2023-12-14T03:48:00;17.58;;;7.80;;
69754;SDS011;57023;52.218;5.158;2023-12-14T03:50:25;15.00;;;6.87;;
69754;SDS011;57023;52.218;5.158;2023-12-14T03:52:50;13.93;;;6.60;;
69754;SDS011;57023;52.218;5.158;2023-12-14T03:55:15;18.07;;;7.27;;
69754;SDS011;57023;52.218;5.158;2023-12-14T03:57:41;16.42;;;6.90;;
69754;SDS011;57023;52.218;5.158;2023-12-14T04:00:09;15.10;;;7.07;;
69754;SDS011;57023;52.218;5.158;2023-12-14T04:02:35;14.70;;;6.57;;
69754;SDS011;57023;52.218;5.158;2023-12-14T04:05:00;14.13;;;6.50;;
69754;SDS011;57023;52.218;5.158;2023-12-14T04:07:25;13.70;;;6.83;;
69754;SDS011;57023;52.218;5.158;2023-12-14T04:09:50;12.63;;;6.17;;
69754;SDS011;57023;52.218;5.158;2023-12-14T04:12:16;16.07;;;6.73;;
69754;SDS011;57023;52.218;5.158;2023-12-14T04:14:41;13.90;;;6.53;;
69754;SDS011;57023;52.218;5.158;2023-12-14T04:17:06;12.80;;;6.33;;
69754;SDS011;57023;52.218;5.158;2023-12-14T04:19:31;13.33;;;7.77;;
69754;SDS011;57023;52.218;5.158;2023-12-14T04:21:56;11.68;;;6.10;;
69754;SDS011;57023;52.218;5.158;2023-12-14T04:24:21;15.13;;;7.20;;
69754;SDS011;57023;52.218;5.158;2023-12-14T04:26:47;13.57;;;6.15;;
69754;SDS011;57023;52.218;5.158;2023-12-14T04:29:12;13.57;;;6.37;;
69754;SDS011;57023;52.218;5.158;2023-12-14T04:31:37;13.48;;;6.35;;
69754;SDS011;57023;52.218;5.158;2023-12-14T04:34:02;13.87;;;6.50;;
69754;SDS011;57023;52.218;5.158;2023-12-14T04:36:27;11.07;;;6.17;;
69754;SDS011;57023;52.218;5.158;2023-12-14T04:38:53;12.55;;;6.00;;
69754;SDS011;57023;52.218;5.158;2023-12-14T04:41:18;13.73;;;6.32;;
69754;SDS011;57023;52.218;5.158;2023-12-14T04:43:43;13.50;;;6.30;;
69754;SDS011;57023;52.218;5.158;2023-12-14T04:46:08;10.90;;;6.27;;
69754;SDS011;57023;52.218;5.158;2023-12-14T04:48:33;11.60;;;6.43;;
69754;SDS011;57023;52.218;5.158;2023-12-14T04:50:58;13.77;;;6.30;;
69754;SDS011;57023;52.218;5.158;2023-12-14T04:53:24;12.57;;;6.20;;
69754;SDS011;57023;52.218;5.158;2023-12-14T04:55:49;11.70;;;6.07;;
69754;SDS011;57023;52.218;5.158;2023-12-14T04:58:14;11.77;;;5.68;;
69754;SDS011;57023;52.218;5.158;2023-12-14T05:00:39;11.43;;;6.03;;
69754;SDS011;57023;52.218;5.158;2023-12-14T05:03:04;10.93;;;5.83;;
69754;SDS011;57023;52.218;5.158;2023-12-14T05:05:29;11.20;;;6.30;;
69754;SDS011;57023;52.218;5.158;2023-12-14T05:07:55;11.63;;;5.87;;
69754;SDS011;57023;52.218;5.158;2023-12-14T05:10:20;12.65;;;5.97;;
69754;SDS011;57023;52.218;5.158;2023-12-14T05:12:45;13.47;;;6.17;;
69754;SDS011;57023;52.218;5.158;2023-12-14T05:15:10;10.37;;;6.00;;
69754;SDS011;57023;52.218;5.158;2023-12-14T05:17:36;13.88;;;6.22;;
69754;SDS011;57023;52.218;5.158;2023-12-14T05:20:01;12.20;;;6.05;;
69754;SDS011;57023;52.218;5.158;2023-12-14T05:22:27;10.20;;;5.43;;
69754;SDS011;57023;52.218;5.158;2023-12-14T05:24:53;10.55;;;5.88;;
69754;SDS011;57023;52.218;5.158;2023-12-14T05:27:18;11.82;;;5.88;;
69754;SDS011;57023;52.218;5.158;2023-12-14T05:29:43;11.27;;;6.23;;
69754;SDS011;57023;52.218;5.158;2023-12-14T05:32:08;10.43;;;5.87;;
69754;SDS011;57023;52.218;5.158;2023-12-14T05:34:33;11.90;;;6.00;;
69754;SDS011;57023;52.218;5.158;2023-12-14T05:36:58;11.33;;;6.00;;
69754;SDS011;57023;52.218;5.158;2023-12-14T05:39:24;10.03;;;5.73;;
69754;SDS011;57023;52.218;5.158;2023-12-14T05:41:49;11.83;;;5.37;;
69754;SDS011;57023;52.218;5.158;2023-12-14T05:44:14;12.38;;;6.00;;
69754;SDS011;57023;52.218;5.158;2023-12-14T05:46:40;10.57;;;6.17;;
69754;SDS011;57023;52.218;5.158;2023-12-14T05:49:05;11.43;;;5.77;;
69754;SDS011;57023;52.218;5.158;2023-12-14T05:51:31;10.95;;;5.60;;
69754;SDS011;57023;52.218;5.158;2023-12-14T05:53:56;13.82;;;6.53;;
69754;SDS011;57023;52.218;5.158;2023-12-14T05:56:21;10.27;;;5.80;;
69754;SDS011;57023;52.218;5.158;2023-12-14T05:58:47;12.20;;;6.17;;
69754;SDS011;57023;52.218;5.158;2023-12-14T06:01:12;11.60;;;6.30;;
69754;SDS011;57023;52.218;5.158;2023-12-14T06:03:38;12.65;;;6.55;;
69754;SDS011;57023;52.218;5.158;2023-12-14T06:06:03;13.67;;;7.33;;
69754;SDS011;57023;52.218;5.158;2023-12-14T06:08:28;17.58;;;7.30;;
69754;SDS011;57023;52.218;5.158;2023-12-14T06:10:53;13.00;;;6.53;;
69754;SDS011;57023;52.218;5.158;2023-12-14T06:13:18;13.90;;;7.60;;
69754;SDS011;57023;52.218;5.158;2023-12-14T06:15:44;14.53;;;7.03;;
69754;SDS011;57023;52.218;5.158;2023-12-14T06:18:09;14.13;;;7.33;;
69754;SDS011;57023;52.218;5.158;2023-12-14T06:20:34;14.45;;;7.53;;
69754;SDS011;57023;52.218;5.158;2023-12-14T06:22:59;14.93;;;7.10;;
69754;SDS011;57023;52.218;5.158;2023-12-14T06:25:24;14.20;;;7.20;;
69754;SDS011;57023;52.218;5.158;2023-12-14T06:27:49;13.27;;;7.17;;
69754;SDS011;57023;52.218;5.158;2023-12-14T06:30:15;15.45;;;7.38;;
69754;SDS011;57023;52.218;5.158;2023-12-14T06:32:40;14.52;;;7.30;;
69754;SDS011;57023;52.218;5.158;2023-12-14T06:35:05;13.77;;;6.77;;
69754;SDS011;57023;52.218;5.158;2023-12-14T06:37:30;13.20;;;7.28;;
69754;SDS011;57023;52.218;5.158;2023-12-14T06:39:56;12.00;;;6.80;;
69754;SDS011;57023;52.218;5.158;2023-12-14T06:42:21;11.57;;;6.60;;
69754;SDS011;57023;52.218;5.158;2023-12-14T06:44:46;11.38;;;6.22;;
69754;SDS011;57023;52.218;5.158;2023-12-14T06:47:11;11.80;;;5.87;;
69754;SDS011;57023;52.218;5.158;2023-12-14T06:49:38;12.18;;;6.75;;
69754;SDS011;57023;52.218;5.158;2023-12-14T06:52:05;11.53;;;6.43;;
69754;SDS011;57023;52.218;5.158;2023-12-14T06:54:30;11.23;;;6.30;;
69754;SDS011;57023;52.218;5.158;2023-12-14T06:56:55;14.07;;;6.53;;
69754;SDS011;57023;52.218;5.158;2023-12-14T06:59:20;13.10;;;6.57;;
69754;SDS011;57023;52.218;5.158;2023-12-14T07:01:45;9.93;;;6.07;;
69754;SDS011;57023;52.218;5.158;2023-12-14T07:04:11;11.13;;;6.33;;
69754;SDS011;57023;52.218;5.158;2023-12-14T07:06:36;10.27;;;6.03;;
69754;SDS011;57023;52.218;5.158;2023-12-14T07:09:01;10.43;;;5.93;;
69754;SDS011;57023;52.218;5.158;2023-12-14T07:11:26;11.02;;;5.78;;
69754;SDS011;57023;52.218;5.158;2023-12-14T07:13:51;10.37;;;6.03;;
69754;SDS011;57023;52.218;5.158;2023-12-14T07:16:16;12.93;;;6.00;;
69754;SDS011;57023;52.218;5.158;2023-12-14T07:18:43;11.77;;;6.57;;
69754;SDS011;57023;52.218;5.158;2023-12-14T07:21:09;12.30;;;6.10;;
69754;SDS011;57023;52.218;5.158;2023-12-14T07:23:34;12.48;;;6.70;;
69754;SDS011;57023;52.218;5.158;2023-12-14T07:26:00;11.00;;;6.18;;
69754;SDS011;57023;52.218;5.158;2023-12-14T07:28:25;11.47;;;6.27;;
69754;SDS011;57023;52.218;5.158;2023-12-14T07:30:50;10.05;;;6.40;;
69754;SDS011;57023;52.218;5.158;2023-12-14T07:33:15;9.13;;;5.63;;
69754;SDS011;57023;52.218;5.158;2023-12-14T07:35:41;10.05;;;6.15;;
69754;SDS011;57023;52.218;5.158;2023-12-14T07:38:06;11.48;;;6.28;;
69754;SDS011;57023;52.218;5.158;2023-12-14T07:40:31;10.20;;;6.00;;
69754;SDS011;57023;52.218;5.158;2023-12-14T07:42:56;12.63;;;6.47;;
69754;SDS011;57023;52.218;5.158;2023-12-14T07:45:22;11.68;;;6.95;;
69754;SDS011;57023;52.218;5.158;2023-12-14T07:47:47;11.40;;;6.43;;
69754;SDS011;57023;52.218;5.158;2023-12-14T07:50:12;12.10;;;6.53;;
69754;SDS011;57023;52.218;5.158;2023-12-14T07:52:38;12.37;;;6.90;;
69754;SDS011;57023;52.218;5.158;2023-12-14T07:55:03;11.40;;;6.63;;
69754;SDS011;57023;52.218;5.158;2023-12-14T07:57:29;11.70;;;6.95;;
69754;SDS011;57023;52.218;5.158;2023-12-14T07:59:54;11.05;;;6.40;;
69754;SDS011;57023;52.218;5.158;2023-12-14T08:02:19;11.10;;;6.50;;
69754;SDS011;57023;52.218;5.158;2023-12-14T08:04:44;10.63;;;6.33;;
69754;SDS011;57023;52.218;5.158;2023-12-14T08:07:09;11.73;;;6.70;;
69754;SDS011;57023;52.218;5.158;2023-12-14T08:09:34;12.30;;;6.70;;
69754;SDS011;57023;52.218;5.158;2023-12-14T08:12:00;12.60;;;6.37;;
69754;SDS011;57023;52.218;5.158;2023-12-14T08:14:25;11.70;;;6.30;;
69754;SDS011;57023;52.218;5.158;2023-12-14T08:16:50;12.33;;;6.47;;
69754;SDS011;57023;52.218;5.158;2023-12-14T08:19:15;10.93;;;6.30;;
69754;SDS011;57023;52.218;5.158;2023-12-14T08:21:40;12.87;;;6.70;;
69754;SDS011;57023;52.218;5.158;2023-12-14T08:24:05;11.20;;;6.03;;
69754;SDS011;57023;52.218;5.158;2023-12-14T08:26:32;11.73;;;6.47;;
69754;SDS011;57023;52.218;5.158;2023-12-14T08:28:57;10.13;;;6.13;;
69754;SDS011;57023;52.218;5.158;2023-12-14T08:31:22;11.33;;;6.23;;
69754;SDS011;57023;52.218;5.158;2023-12-14T08:33:48;11.10;;;5.63;;
69754;SDS011;57023;52.218;5.158;2023-12-14T08:36:16;11.10;;;5.88;;
69754;SDS011;57023;52.218;5.158;2023-12-14T08:38:42;11.52;;;6.30;;
69754;SDS011;57023;52.218;5.158;2023-12-14T08:41:07;10.90;;;5.97;;
69754;SDS011;57023;52.218;5.158;2023-12-14T08:43:32;10.30;;;5.90;;
69754;SDS011;57023;52.218;5.158;2023-12-14T08:45:57;12.00;;;6.47;;
69754;SDS011;57023;52.218;5.158;2023-12-14T08:48:22;10.53;;;6.50;;
69754;SDS011;57023;52.218;5.158;2023-12-14T08:50:47;11.33;;;6.30;;
69754;SDS011;57023;52.218;5.158;2023-12-14T08:53:13;10.25;;;6.20;;
69754;SDS011;57023;52.218;5.158;2023-12-14T08:55:38;11.23;;;6.80;;
69754;SDS011;57023;52.218;5.158;2023-12-14T08:58:03;10.33;;;6.17;;
69754;SDS011;57023;52.218;5.158;2023-12-14T09:00:28;10.77;;;6.20;;
69754;SDS011;57023;52.218;5.158;2023-12-14T09:02:53;10.57;;;5.73;;
69754;SDS011;57023;52.218;5.158;2023-12-14T09:05:18;9.80;;;5.57;;
69754;SDS011;57023;52.218;5.158;2023-12-14T09:07:45;11.95;;;6.00;;
69754;SDS011;57023;52.218;5.158;2023-12-14T09:10:11;12.30;;;6.25;;
69754;SDS011;57023;52.218;5.158;2023-12-14T09:12:36;10.57;;;5.88;;
69754;SDS011;57023;52.218;5.158;2023-12-14T09:15:01;9.00;;;5.75;;
69754;SDS011;57023;52.218;5.158;2023-12-14T09:17:27;9.32;;;5.07;;
69754;SDS011;57023;52.218;5.158;2023-12-14T09:19:57;10.75;;;5.95;;
69754;SDS011;57023;52.218;5.158;2023-12-14T09:22:23;8.07;;;5.10;;
69754;SDS011;57023;52.218;5.158;2023-12-14T09:24:48;8.20;;;5.17;;
69754;SDS011;57023;52.218;5.158;2023-12-14T09:27:13;8.68;;;5.22;;
69754;SDS011;57023;52.218;5.158;2023-12-14T09:29:38;8.77;;;5.83;;
69754;SDS011;57023;52.218;5.158;2023-12-14T09:32:03;9.83;;;5.17;;
69754;SDS011;57023;52.218;5.158;2023-12-14T09:34:29;9.32;;;5.43;;
69754;SDS011;57023;52.218;5.158;2023-12-14T09:36:54;9.60;;;5.60;;
69754;SDS011;57023;52.218;5.158;2023-12-14T09:39:19;10.77;;;6.35;;
69754;SDS011;57023;52.218;5.158;2023-12-14T09:41:46;10.88;;;6.05;;
69754;SDS011;57023;52.218;5.158;2023-12-14T09:44:12;13.68;;;7.28;;
69754;SDS011;57023;52.218;5.158;2023-12-14T09:46:37;9.00;;;5.30;;
69754;SDS011;57023;52.218;5.158;2023-12-14T09:49:03;9.43;;;5.40;;
69754;SDS011;57023;52.218;5.158;2023-12-14T09:51:29;8.95;;;5.00;;
69754;SDS011;57023;52.218;5.158;2023-12-14T09:53:54;9.25;;;4.85;;
69754;SDS011;57023;52.218;5.158;2023-12-14T09:56:26;11.18;;;4.80;;
69754;SDS011;57023;52.218;5.158;2023-12-14T09:58:51;8.80;;;4.90;;
69754;SDS011;57023;52.218;5.158;2023-12-14T10:01:26;8.57;;;4.80;;
69754;SDS011;57023;52.218;5.158;2023-12-14T10:04:06;9.48;;;5.15;;
69754;SDS011;57023;52.218;5.158;2023-12-14T10:06:31;8.13;;;4.60;;
69754;SDS011;57023;52.218;5.158;2023-12-14T10:08:57;8.73;;;4.68;;
69754;SDS011;57023;52.218;5.158;2023-12-14T10:11:22;8.37;;;5.03;;
69754;SDS011;57023;52.218;5.158;2023-12-14T10:13:48;8.07;;;4.70;;
69754;SDS011;57023;52.218;5.158;2023-12-14T10:16:21;9.15;;;4.55;;
69754;SDS011;57023;52.218;5.158;2023-12-14T10:18:51;8.35;;;5.03;;
69754;SDS011;57023;52.218;5.158;2023-12-14T10:21:16;10.63;;;5.03;;
69754;SDS011;57023;52.218;5.158;2023-12-14T10:23:42;9.68;;;5.80;;
69754;SDS011;57023;52.218;5.158;2023-12-14T10:26:07;7.73;;;4.93;;
69754;SDS011;57023;52.218;5.158;2023-12-14T10:28:33;8.00;;;5.00;;
69754;SDS011;57023;52.218;5.158;2023-12-14T10:30:58;11.50;;;5.18;;
69754;SDS011;57023;52.218;5.158;2023-12-14T10:33:24;8.40;;;4.85;;
69754;SDS011;57023;52.218;5.158;2023-12-14T10:35:49;18.07;;;5.60;;
69754;SDS011;57023;52.218;5.158;2023-12-14T10:38:14;11.68;;;5.75;;
69754;SDS011;57023;52.218;5.158;2023-12-14T10:40:40;7.93;;;5.03;;
69754;SDS011;57023;52.218;5.158;2023-12-14T10:43:08;8.18;;;4.95;;
69754;SDS011;57023;52.218;5.158;2023-12-14T10:45:34;9.93;;;5.28;;
69754;SDS011;57023;52.218;5.158;2023-12-14T10:48:00;9.52;;;5.07;;
69754;SDS011;57023;52.218;5.158;2023-12-14T10:50:29;8.85;;;4.70;;
69754;SDS011;57023;52.218;5.158;2023-12-14T10:52:55;8.45;;;4.60;;
69754;SDS011;57023;52.218;5.158;2023-12-14T10:55:28;9.18;;;5.50;;
69754;SDS011;57023;52.218;5.158;2023-12-14T10:57:55;9.27;;;4.90;;
69754;SDS011;57023;52.218;5.158;2023-12-14T11:00:21;9.73;;;4.85;;
69754;SDS011;57023;52.218;5.158;2023-12-14T11:02:47;7.20;;;4.53;;
69754;SDS011;57023;52.218;5.158;2023-12-14T11:05:13;8.68;;;5.10;;
69754;SDS011;57023;52.218;5.158;2023-12-14T11:10:09;8.57;;;5.10;;
69754;SDS011;57023;52.218;5.158;2023-12-14T11:12:34;10.80;;;5.00;;
69754;SDS011;57023;52.218;5.158;2023-12-14T11:14:59;8.30;;;4.73;;
69754;SDS011;57023;52.218;5.158;2023-12-14T11:17:25;7.87;;;4.73;;
69754;SDS011;57023;52.218;5.158;2023-12-14T11:19:50;8.53;;;4.70;;
69754;SDS011;57023;52.218;5.158;2023-12-14T11:22:22;8.40;;;5.22;;
69754;SDS011;57023;52.218;5.158;2023-12-14T11:24:51;9.90;;;5.63;;
69754;SDS011;57023;52.218;5.158;2023-12-14T11:27:19;9.23;;;5.50;;
69754;SDS011;57023;52.218;5.158;2023-12-14T11:29:45;9.13;;;5.10;;
69754;SDS011;57023;52.218;5.158;2023-12-14T11:32:10;10.45;;;6.15;;
69754;SDS011;57023;52.218;5.158;2023-12-14T11:34:36;9.48;;;5.25;;
69754;SDS011;57023;52.218;5.158;2023-12-14T11:37:03;9.23;;;5.40;;
69754;SDS011;57023;52.218;5.158;2023-12-14T11:39:31;9.93;;;5.28;;
69754;SDS011;57023;52.218;5.158;2023-12-14T11:42:00;9.38;;;5.30;;
69754;SDS011;57023;52.218;5.158;2023-12-14T11:44:26;9.70;;;5.00;;
69754;SDS011;57023;52.218;5.158;2023-12-14T11:46:51;9.67;;;5.80;;
69754;SDS011;57023;52.218;5.158;2023-12-14T11:49:16;11.33;;;5.27;;
69754;SDS011;57023;52.218;5.158;2023-12-14T11:51:41;11.27;;;5.43;;
69754;SDS011;57023;52.218;5.158;2023-12-14T11:54:06;8.97;;;4.40;;
69754;SDS011;57023;52.218;5.158;2023-12-14T11:56:33;11.63;;;5.43;;
69754;SDS011;57023;52.218;5.158;2023-12-14T11:58:59;11.60;;;5.95;;
69754;SDS011;57023;52.218;5.158;2023-12-14T12:01:24;10.23;;;5.30;;
69754;SDS011;57023;52.218;5.158;2023-12-14T12:03:51;8.40;;;4.83;;
69754;SDS011;57023;52.218;5.158;2023-12-14T12:06:23;7.77;;;4.57;;
69754;SDS011;57023;52.218;5.158;2023-12-14T12:08:48;7.88;;;4.70;;
69754;SDS011;57023;52.218;5.158;2023-12-14T12:11:17;10.73;;;5.53;;
69754;SDS011;57023;52.218;5.158;2023-12-14T12:13:42;10.10;;;5.68;;
69754;SDS011;57023;52.218;5.158;2023-12-14T12:16:07;8.27;;;5.17;;
69754;SDS011;57023;52.218;5.158;2023-12-14T12:18:32;8.73;;;5.20;;
69754;SDS011;57023;52.218;5.158;2023-12-14T12:20:58;9.57;;;5.60;;
69754;SDS011;57023;52.218;5.158;2023-12-14T12:23:28;11.82;;;4.93;;
69754;SDS011;57023;52.218;5.158;2023-12-14T12:25:53;9.73;;;5.70;;
69754;SDS011;57023;52.218;5.158;2023-12-14T12:28:20;11.53;;;5.97;;
69754;SDS011;57023;52.218;5.158;2023-12-14T12:30:45;11.67;;;5.80;;
69754;SDS011;57023;52.218;5.158;2023-12-14T12:33:10;12.13;;;6.33;;
69754;SDS011;57023;52.218;5.158;2023-12-14T12:35:36;10.35;;;6.13;;
69754;SDS011;57023;52.218;5.158;2023-12-14T12:38:01;13.23;;;7.10;;
69754;SDS011;57023;52.218;5.158;2023-12-14T12:40:26;12.10;;;6.50;;
69754;SDS011;57023;52.218;5.158;2023-12-14T12:42:52;11.63;;;6.00;;
69754;SDS011;57023;52.218;5.158;2023-12-14T12:45:17;12.75;;;7.05;;
69754;SDS011;57023;52.218;5.158;2023-12-14T12:47:52;14.88;;;6.80;;
69754;SDS011;57023;52.218;5.158;2023-12-14T12:50:18;12.13;;;6.88;;
69754;SDS011;57023;52.218;5.158;2023-12-14T12:52:43;14.13;;;6.68;;
69754;SDS011;57023;52.218;5.158;2023-12-14T12:55:10;10.38;;;5.38;;
69754;SDS011;57023;52.218;5.158;2023-12-14T12:57:36;9.00;;;4.82;;
69754;SDS011;57023;52.218;5.158;2023-12-14T13:00:01;13.25;;;7.45;;
69754;SDS011;57023;52.218;5.158;2023-12-14T13:04:54;15.40;;;6.85;;
69754;SDS011;57023;52.218;5.158;2023-12-14T13:07:19;16.90;;;7.90;;
69754;SDS011;57023;52.218;5.158;2023-12-14T13:09:44;12.47;;;7.00;;
69754;SDS011;57023;52.218;5.158;2023-12-14T13:12:09;14.70;;;7.03;;
69754;SDS011;57023;52.218;5.158;2023-12-14T13:14:35;13.52;;;6.82;;
69754;SDS011;57023;52.218;5.158;2023-12-14T13:17:00;12.90;;;6.78;;
69754;SDS011;57023;52.218;5.158;2023-12-14T13:19:25;14.77;;;6.90;;
69754;SDS011;57023;52.218;5.158;2023-12-14T13:21:51;15.80;;;6.28;;
69754;SDS011;57023;52.218;5.158;2023-12-14T13:24:16;10.98;;;5.80;;
69754;SDS011;57023;52.218;5.158;2023-12-14T13:26:41;11.35;;;6.10;;
69754;SDS011;57023;52.218;5.158;2023-12-14T13:29:06;11.60;;;6.65;;
69754;SDS011;57023;52.218;5.158;2023-12-14T13:31:32;12.80;;;7.07;;
69754;SDS011;57023;52.218;5.158;2023-12-14T13:33:57;15.73;;;7.17;;
69754;SDS011;57023;52.218;5.158;2023-12-14T13:36:22;14.83;;;7.60;;
69754;SDS011;57023;52.218;5.158;2023-12-14T13:38:48;12.30;;;7.10;;
69754;SDS011;57023;52.218;5.158;2023-12-14T13:41:13;12.73;;;6.83;;
69754;SDS011;57023;52.218;5.158;2023-12-14T13:43:39;12.50;;;6.90;;
69754;SDS011;57023;52.218;5.158;2023-12-14T13:46:04;12.83;;;7.30;;
69754;SDS011;57023;52.218;5.158;2023-12-14T13:48:29;13.30;;;6.85;;
69754;SDS011;57023;52.218;5.158;2023-12-14T13:50:54;13.53;;;7.07;;
69754;SDS011;57023;52.218;5.158;2023-12-14T13:53:20;11.63;;;5.70;;
69754;SDS011;57023;52.218;5.158;2023-12-14T13:55:45;13.23;;;5.85;;
69754;SDS011;57023;52.218;5.158;2023-12-14T13:58:11;14.43;;;6.53;;
69754;SDS011;57023;52.218;5.158;2023-12-14T14:00:37;11.73;;;6.67;;
69754;SDS011;57023;52.218;5.158;2023-12-14T14:03:02;14.38;;;6.95;;
69754;SDS011;57023;52.218;5.158;2023-12-14T14:05:28;11.20;;;5.85;;
69754;SDS011;57023;52.218;5.158;2023-12-14T14:07:53;13.40;;;7.30;;
69754;SDS011;57023;52.218;5.158;2023-12-14T14:10:19;14.33;;;7.47;;
69754;SDS011;57023;52.218;5.158;2023-12-14T14:12:44;15.45;;;7.88;;
69754;SDS011;57023;52.218;5.158;2023-12-14T14:15:10;14.20;;;7.35;;
69754;SDS011;57023;52.218;5.158;2023-12-14T14:17:35;13.23;;;7.13;;
69754;SDS011;57023;52.218;5.158;2023-12-14T14:20:00;12.85;;;6.95;;
69754;SDS011;57023;52.218;5.158;2023-12-14T14:22:25;14.45;;;7.15;;
69754;SDS011;57023;52.218;5.158;2023-12-14T14:24:51;15.05;;;8.23;;
69754;SDS011;57023;52.218;5.158;2023-12-14T14:27:16;12.80;;;6.47;;
69754;SDS011;57023;52.218;5.158;2023-12-14T14:29:41;14.13;;;7.80;;
69754;SDS011;57023;52.218;5.158;2023-12-14T14:32:06;15.40;;;7.73;;
69754;SDS011;57023;52.218;5.158;2023-12-14T14:34:31;15.10;;;7.80;;
69754;SDS011;57023;52.218;5.158;2023-12-14T14:36:57;14.35;;;7.43;;